Time;durP1;ratioP1;P1;durP2;ratioP2;P2;SDS_P1;SDS_P2;PMS_P1;PMS_P2;Temp;Humidity;BMP_temperature;BMP_pressure;BME280_temperature;BME280_humidity;BME280_pressure;Samples;Min_cycle;Max_cycle;Signal;HPM_P1;HPM_P2
2021/01/15 00:01:36;;;;;;;16.70;14.97;;;1.60;99.90;;;;;;6172914;23;20442;-80
2021/01/15 00:04:04;;;;;;;17.60;15.43;;;1.60;99.90;;;;;;6209206;23;20384;-81
2021/01/15 00:06:31;;;;;;;18.53;15.37;;;1.50;99.90;;;;;;6173902;23;20420;-80
2021/01/15 00:08:59;;;;;;;17.23;15.50;;;1.50;99.90;;;;;;6210858;23;20443;-79
2021/01/15 00:11:28;;;;;;;16.53;14.77;;;1.50;99.90;;;;;;6173370;23;20416;-80
2021/01/15 00:13:56;;;;;;;17.03;15.27;;;1.50;99.90;;;;;;6171416;23;20419;-80
2021/01/15 00:16:24;;;;;;;16.53;14.73;;;1.50;99.90;;;;;;6209420;23;20398;-79
2021/01/15 00:18:53;;;;;;;16.77;14.77;;;1.50;99.90;;;;;;6209404;23;20445;-79
2021/01/15 00:21:22;;;;;;;16.03;14.37;;;1.50;99.90;;;;;;6215110;23;20452;-80
2021/01/15 00:23:54;;;;;;;16.80;14.83;;;1.50;99.90;;;;;;6180613;23;20420;-80
2021/01/15 00:26:25;;;;;;;16.83;15.10;;;1.50;99.90;;;;;;6216199;23;20914;-80
2021/01/15 00:28:53;;;;;;;16.70;14.43;;;1.50;99.90;;;;;;6179951;23;20489;-80
2021/01/15 00:31:28;;;;;;;17.00;14.33;;;1.50;99.90;;;;;;6178087;23;20511;-80
2021/01/15 00:34:00;;;;;;;17.10;15.50;;;1.50;99.90;;;;;;6174039;23;20407;-80
2021/01/15 00:36:28;;;;;;;19.03;17.13;;;1.50;99.90;;;;;;6208460;23;20408;-79
2021/01/15 00:38:56;;;;;;;17.43;14.80;;;1.50;99.90;;;;;;6170777;23;20950;-80
2021/01/15 00:41:23;;;;;;;16.30;14.13;;;1.50;99.90;;;;;;6206226;23;20424;-80
2021/01/15 00:43:50;;;;;;;18.27;15.07;;;1.50;99.90;;;;;;6170009;23;20458;-80
2021/01/15 00:46:27;;;;;;;18.03;16.17;;;1.50;99.90;;;;;;6205439;23;20469;-80
2021/01/15 00:48:55;;;;;;;17.93;14.40;;;1.50;99.90;;;;;;6169042;23;20440;-80
2021/01/15 00:51:24;;;;;;;17.40;14.03;;;1.50;99.90;;;;;;6169433;23;20408;-80
2021/01/15 00:53:53;;;;;;;16.30;14.60;;;1.50;99.90;;;;;;6170841;23;20443;-80
2021/01/15 00:56:21;;;;;;;16.33;14.63;;;1.50;99.90;;;;;;6206116;23;20400;-80
2021/01/15 00:58:49;;;;;;;17.40;15.60;;;1.50;99.90;;;;;;6170273;23;20949;-80
2021/01/15 01:01:22;;;;;;;18.43;14.60;;;1.50;99.90;;;;;;6171317;23;20439;-80
2021/01/15 01:03:53;;;;;;;15.40;13.13;;;1.50;99.90;;;;;;6170858;23;20409;-80
2021/01/15 01:06:21;;;;;;;17.50;15.70;;;1.40;99.90;;;;;;6171271;23;20504;-80
2021/01/15 01:08:50;;;;;;;18.37;14.43;;;1.40;99.90;;;;;;6171099;23;20436;-80
2021/01/15 01:11:19;;;;;;;20.17;15.60;;;1.50;99.90;;;;;;6171735;23;20439;-80
2021/01/15 01:13:46;;;;;;;18.40;15.53;;;1.40;99.90;;;;;;6208457;23;20392;-80
2021/01/15 01:16:15;;;;;;;17.53;14.50;;;1.40;99.90;;;;;;6170387;23;20416;-80
2021/01/15 01:18:42;;;;;;;19.43;16.17;;;1.40;99.90;;;;;;6170297;23;20436;-79
2021/01/15 01:21:10;;;;;;;17.23;14.73;;;1.40;99.90;;;;;;6205387;23;20451;-80
2021/01/15 01:23:37;;;;;;;18.23;16.30;;;1.40;99.90;;;;;;6175376;23;20404;-79
2021/01/15 01:26:06;;;;;;;16.37;14.70;;;1.40;99.90;;;;;;6207595;23;20400;-79
2021/01/15 01:28:33;;;;;;;16.90;15.20;;;1.40;99.90;;;;;;6170161;23;20442;-79
2021/01/15 01:31:00;;;;;;;15.37;13.40;;;1.40;99.90;;;;;;6197648;23;20419;-79
2021/01/15 01:33:27;;;;;;;16.57;14.80;;;1.40;99.90;;;;;;6168668;23;20443;-79
2021/01/15 01:35:55;;;;;;;15.90;14.30;;;1.40;99.90;;;;;;6204755;23;20404;-81
2021/01/15 01:38:22;;;;;;;16.60;14.13;;;1.40;99.90;;;;;;6205295;23;20470;-79
2021/01/15 01:40:51;;;;;;;16.80;15.03;;;1.40;99.90;;;;;;6167039;23;20431;-79
2021/01/15 01:43:19;;;;;;;17.30;15.03;;;1.40;99.90;;;;;;6204627;23;20403;-80
2021/01/15 01:45:47;;;;;;;15.63;13.87;;;1.40;99.90;;;;;;6168355;23;20478;-80
2021/01/15 01:48:15;;;;;;;18.23;13.73;;;1.40;99.90;;;;;;6168269;23;20439;-80
2021/01/15 01:50:43;;;;;;;16.23;13.83;;;1.40;99.90;;;;;;6167513;23;20419;-80
2021/01/15 01:53:16;;;;;;;15.03;13.17;;;1.40;99.90;;;;;;6168886;23;20407;-80
2021/01/15 01:55:44;;;;;;;15.87;13.63;;;1.40;99.90;;;;;;6168534;23;20882;-80
2021/01/15 01:58:14;;;;;;;18.30;14.70;;;1.40;99.90;;;;;;6167254;23;20437;-79
2021/01/15 02:00:47;;;;;;;16.63;14.93;;;1.40;99.90;;;;;;6168463;23;20922;-80
2021/01/15 02:03:17;;;;;;;16.10;13.93;;;1.40;99.90;;;;;;6205967;23;20384;-80
2021/01/15 02:05:47;;;;;;;16.43;14.73;;;1.40;99.90;;;;;;6206616;23;20382;-80
2021/01/15 02:08:15;;;;;;;16.70;14.17;;;1.40;99.90;;;;;;6170115;23;20454;-80
2021/01/15 02:10:45;;;;;;;16.43;14.17;;;1.40;99.90;;;;;;6169010;23;20891;-80
2021/01/15 02:13:21;;;;;;;16.33;14.23;;;1.40;99.90;;;;;;6170939;23;20419;-80
2021/01/15 02:15:57;;;;;;;16.23;14.53;;;1.40;99.90;;;;;;6170798;23;20483;-80
2021/01/15 02:18:32;;;;;;;18.20;14.80;;;1.40;99.90;;;;;;6170897;23;20438;-80
2021/01/15 02:21:42;;;;;;;20.17;14.80;;;1.40;99.90;;;;;;6168291;23;20434;-79
2021/01/15 02:24:18;;;;;;;17.03;14.50;;;1.40;99.90;;;;;;6169030;23;20399;-80
2021/01/15 02:27:12;;;;;;;16.67;13.77;;;1.40;99.90;;;;;;6170242;23;20494;-80
2021/01/15 02:29:46;;;;;;;16.10;13.27;;;1.40;99.90;;;;;;6206097;23;20419;-80
2021/01/15 02:32:39;;;;;;;17.83;15.67;;;1.40;99.90;;;;;;6206163;23;20407;-79
2021/01/15 02:35:41;;;;;;;19.40;16.03;;;1.40;99.90;;;;;;6169866;23;20444;-79
2021/01/15 02:38:24;;;;;;;16.20;14.30;;;1.40;99.90;;;;;;6170220;23;20711;-80
2021/01/15 02:41:18;;;;;;;18.03;15.93;;;1.30;99.90;;;;;;6206061;23;20415;-79
2021/01/15 02:43:50;;;;;;;17.83;14.57;;;1.30;99.90;;;;;;6206230;23;20456;-80
2021/01/15 02:46:24;;;;;;;17.97;14.37;;;1.30;99.90;;;;;;6170366;23;20418;-80
2021/01/15 02:48:54;;;;;;;19.33;15.10;;;1.30;99.90;;;;;;6170503;23;20471;-80
2021/01/15 02:51:21;;;;;;;16.87;15.07;;;1.40;99.90;;;;;;6170694;23;20979;-79
2021/01/15 02:53:49;;;;;;;17.30;15.33;;;1.40;99.90;;;;;;6171563;23;20409;-79
2021/01/15 02:56:16;;;;;;;16.77;15.07;;;1.40;99.90;;;;;;6171622;23;20418;-80
2021/01/15 02:58:43;;;;;;;18.60;14.33;;;1.40;99.90;;;;;;6172230;23;20431;-80
2021/01/15 03:01:11;;;;;;;18.63;15.37;;;1.40;99.90;;;;;;6167539;23;20527;-80
2021/01/15 03:03:50;;;;;;;18.43;15.80;;;1.40;99.90;;;;;;6168483;23;20419;-80
2021/01/15 03:06:32;;;;;;;17.20;15.33;;;1.40;99.90;;;;;;6204758;23;20407;-79
2021/01/15 03:09:01;;;;;;;17.40;15.23;;;1.40;99.90;;;;;;6167047;23;20431;-80
2021/01/15 03:11:33;;;;;;;17.87;14.40;;;1.40;99.90;;;;;;6205833;23;20423;-79
2021/01/15 03:14:02;;;;;;;17.07;13.90;;;1.40;99.90;;;;;;6169169;23;20454;-80
2021/01/15 03:16:30;;;;;;;18.40;15.27;;;1.40;99.90;;;;;;6169043;23;20785;-80
2021/01/15 03:19:00;;;;;;;16.33;13.50;;;1.40;99.90;;;;;;6168536;23;20812;-80
2021/01/15 03:21:34;;;;;;;19.17;15.10;;;1.40;99.90;;;;;;6168588;23;20428;-79
2021/01/15 03:24:03;;;;;;;18.67;15.70;;;1.40;99.90;;;;;;6168889;23;20747;-80
2021/01/15 03:26:31;;;;;;;17.63;15.30;;;1.40;99.90;;;;;;6169322;23;20426;-80
2021/01/15 03:28:58;;;;;;;18.20;16.27;;;1.40;99.90;;;;;;6205656;23;20489;-80
2021/01/15 03:31:26;;;;;;;19.70;17.30;;;1.40;99.90;;;;;;6168975;23;20501;-80
2021/01/15 03:33:57;;;;;;;17.33;15.40;;;1.40;99.90;;;;;;6169444;23;20414;-80
2021/01/15 03:36:25;;;;;;;19.93;15.73;;;1.40;99.90;;;;;;6205861;23;20897;-80
2021/01/15 03:38:53;;;;;;;19.43;17.40;;;1.40;99.90;;;;;;6169293;23;20428;-80
2021/01/15 03:41:20;;;;;;;18.30;15.23;;;1.40;99.90;;;;;;6206172;23;20427;-80
2021/01/15 03:43:47;;;;;;;20.53;17.30;;;1.40;99.90;;;;;;6169277;23;20442;-79
2021/01/15 03:46:17;;;;;;;20.40;16.60;;;1.40;99.90;;;;;;6206462;23;20708;-79
2021/01/15 03:48:45;;;;;;;18.70;15.60;;;1.40;99.90;;;;;;6169713;23;20772;-79
2021/01/15 03:51:12;;;;;;;21.30;17.13;;;1.40;99.90;;;;;;6169233;23;20542;-79
2021/01/15 03:53:44;;;;;;;20.90;16.77;;;1.40;99.90;;;;;;6167348;23;20910;-79
2021/01/15 03:56:16;;;;;;;19.40;17.30;;;1.40;99.90;;;;;;6203823;23;20841;-79
2021/01/15 03:58:44;;;;;;;21.10;17.00;;;1.40;99.90;;;;;;6166751;23;20432;-79
2021/01/15 04:01:13;;;;;;;20.90;17.83;;;1.40;99.90;;;;;;6166825;23;20440;-79
2021/01/15 04:03:40;;;;;;;23.63;18.10;;;1.40;99.90;;;;;;6174298;23;20438;-81
2021/01/15 04:06:08;;;;;;;21.00;16.97;;;1.40;99.90;;;;;;6170038;23;20478;-79
2021/01/15 04:08:35;;;;;;;22.80;17.10;;;1.40;99.90;;;;;;6170206;23;20442;-80
2021/01/15 04:11:02;;;;;;;20.50;17.87;;;1.40;99.90;;;;;;6207263;23;20391;-80
2021/01/15 04:13:31;;;;;;;21.47;16.77;;;1.40;99.90;;;;;;6170886;23;20427;-80
2021/01/15 04:15:58;;;;;;;21.47;18.03;;;1.50;99.90;;;;;;6206065;23;20409;-80
2021/01/15 04:18:25;;;;;;;20.30;16.60;;;1.40;99.90;;;;;;6170708;23;20436;-80
2021/01/15 04:20:53;;;;;;;20.27;18.10;;;1.40;99.90;;;;;;6168905;23;20530;-80
2021/01/15 04:23:20;;;;;;;20.73;17.60;;;1.50;99.90;;;;;;6171102;23;20412;-80
2021/01/15 04:25:47;;;;;;;23.17;17.30;;;1.50;99.90;;;;;;6170521;23;20462;-80
2021/01/15 04:28:14;;;;;;;20.90;16.70;;;1.50;99.90;;;;;;6208470;23;20423;-80
2021/01/15 04:30:42;;;;;;;19.40;17.00;;;1.50;99.90;;;;;;6171641;23;20452;-80
2021/01/15 04:33:10;;;;;;;21.10;17.33;;;1.50;99.90;;;;;;6171793;23;20416;-80
2021/01/15 04:35:37;;;;;;;23.43;19.10;;;1.50;99.90;;;;;;6172468;23;20422;-79
2021/01/15 04:38:04;;;;;;;21.87;18.17;;;1.50;99.90;;;;;;6210734;23;20391;-80
2021/01/15 04:40:32;;;;;;;20.80;18.57;;;1.50;99.90;;;;;;6169675;23;20477;-80
2021/01/15 04:43:01;;;;;;;22.00;18.87;;;1.50;99.90;;;;;;6205998;23;20404;-80
2021/01/15 04:45:31;;;;;;;22.47;18.63;;;1.50;99.90;;;;;;6205730;23;20454;-80
2021/01/15 04:48:03;;;;;;;20.70;17.40;;;1.50;99.90;;;;;;6168992;23;20481;-79
2021/01/15 04:50:31;;;;;;;22.90;19.00;;;1.50;99.90;;;;;;6169266;23;20416;-80
2021/01/15 04:53:03;;;;;;;22.20;19.13;;;1.50;99.90;;;;;;6204770;23;20382;-80
2021/01/15 04:55:33;;;;;;;21.47;18.87;;;1.50;99.90;;;;;;6168087;23;20419;-80
2021/01/15 04:58:01;;;;;;;21.50;17.90;;;1.50;99.90;;;;;;6168866;23;20816;-80
2021/01/15 05:00:30;;;;;;;23.03;18.77;;;1.50;99.90;;;;;;6168942;23;20422;-80
2021/01/15 05:02:59;;;;;;;22.87;19.70;;;1.60;99.90;;;;;;6169862;23;20415;-80
2021/01/15 05:05:28;;;;;;;25.35;19.40;;;1.50;99.90;;;;;;6167132;23;20421;-80
2021/01/15 05:08:10;;;;;;;26.17;19.83;;;1.70;99.90;;;;;;6167588;23;20679;-79
2021/01/15 05:10:40;;;;;;;26.93;21.77;;;1.70;99.90;;;;;;6168364;23;20466;-80
2021/01/15 05:13:09;;;;;;;23.13;20.63;;;1.60;99.90;;;;;;6168345;23;20424;-80
2021/01/15 05:15:38;;;;;;;24.42;20.17;;;1.60;99.90;;;;;;6166703;23;20415;-80
2021/01/15 05:18:06;;;;;;;21.80;19.23;;;1.70;99.90;;;;;;6204362;23;20184;-79
2021/01/15 05:20:35;;;;;;;23.07;20.67;;;1.70;99.90;;;;;;6167841;23;20416;-79
2021/01/15 05:23:04;;;;;;;25.27;21.30;;;1.70;99.90;;;;;;6203730;23;20386;-79
2021/01/15 05:25:32;;;;;;;28.27;21.97;;;1.70;99.90;;;;;;6205471;23;20399;-80
2021/01/15 05:28:00;;;;;;;22.87;19.93;;;1.60;99.90;;;;;;6167145;23;20413;-79
2021/01/15 05:30:30;;;;;;;25.27;21.43;;;1.60;99.90;;;;;;6204637;23;20431;-79
2021/01/15 05:33:00;;;;;;;24.07;19.97;;;1.60;99.90;;;;;;6168447;23;20458;-79
2021/01/15 05:35:43;;;;;;;25.30;21.70;;;1.50;99.90;;;;;;6169023;23;20415;-79
2021/01/15 05:38:16;;;;;;;26.93;20.50;;;1.60;99.90;;;;;;6168248;23;20423;-80
2021/01/15 05:40:46;;;;;;;22.70;19.63;;;1.60;99.90;;;;;;6169041;23;20502;-80
2021/01/15 05:43:22;;;;;;;28.53;22.80;;;1.50;99.90;;;;;;6169286;23;20396;-80
2021/01/15 05:46:09;;;;;;;24.97;20.70;;;1.50;99.90;;;;;;6168798;23;20449;-80
2021/01/15 05:48:39;;;;;;;25.90;20.13;;;1.50;99.90;;;;;;6168668;23;20518;-80
2021/01/15 05:51:22;;;;;;;25.93;19.60;;;1.50;99.90;;;;;;6204559;23;20403;-80
2021/01/15 05:53:52;;;;;;;23.37;17.97;;;1.50;99.90;;;;;;6169280;23;20400;-80
2021/01/15 05:56:19;;;;;;;23.40;19.57;;;1.50;99.90;;;;;;6169892;23;20422;-79
2021/01/15 05:59:01;;;;;;;26.47;20.97;;;1.50;99.90;;;;;;6205410;23;20756;-79
2021/01/15 06:01:40;;;;;;;23.37;20.00;;;1.50;99.90;;;;;;6169643;23;20435;-79
2021/01/15 06:04:10;;;;;;;25.73;20.17;;;1.50;99.90;;;;;;6169218;23;20407;-79
2021/01/15 06:06:41;;;;;;;27.17;19.93;;;1.50;99.90;;;;;;6205210;23;20499;-79
2021/01/15 06:09:09;;;;;;;26.97;20.87;;;1.60;99.90;;;;;;6169651;23;21018;-80
2021/01/15 06:11:38;;;;;;;22.67;20.03;;;1.50;99.90;;;;;;6169429;23;20415;-80
2021/01/15 06:14:18;;;;;;;23.53;18.97;;;1.50;99.90;;;;;;6169289;23;20416;-80
2021/01/15 06:16:45;;;;;;;24.90;20.70;;;1.50;99.90;;;;;;6168692;23;20469;-80
2021/01/15 06:19:13;;;;;;;22.40;19.50;;;1.50;99.90;;;;;;6167024;23;20470;-80
2021/01/15 06:21:54;;;;;;;28.07;21.20;;;1.50;99.90;;;;;;6167103;23;20431;-80
2021/01/15 06:24:22;;;;;;;22.93;19.13;;;1.50;99.90;;;;;;6166955;23;20414;-80
2021/01/15 06:27:05;;;;;;;22.00;19.67;;;1.50;99.90;;;;;;6166426;23;20867;-80
2021/01/15 06:29:43;;;;;;;24.83;21.80;;;1.60;99.90;;;;;;6201666;23;20423;-80
2021/01/15 06:32:11;;;;;;;24.47;19.77;;;1.60;99.90;;;;;;6202632;23;20828;-80
2021/01/15 06:34:48;;;;;;;23.63;21.10;;;1.60;99.90;;;;;;6165725;23;20419;-80
2021/01/15 06:37:21;;;;;;;23.97;19.80;;;1.60;99.90;;;;;;6166748;23;20411;-80
2021/01/15 06:40:08;;;;;;;24.53;20.90;;;1.60;99.90;;;;;;6169079;23;20424;-80
2021/01/15 06:42:46;;;;;;;24.27;19.90;;;1.60;99.90;;;;;;6204874;23;20482;-80
2021/01/15 06:45:16;;;;;;;26.07;19.83;;;1.60;99.90;;;;;;6166919;23;20792;-79
2021/01/15 06:47:46;;;;;;;26.33;20.83;;;1.60;99.90;;;;;;6166630;23;20412;-79
2021/01/15 06:50:19;;;;;;;23.37;18.53;;;1.60;99.90;;;;;;6166888;23;20939;-79
2021/01/15 06:52:49;;;;;;;27.03;21.07;;;1.60;99.90;;;;;;6202693;23;20395;-79
2021/01/15 06:55:19;;;;;;;24.17;19.60;;;1.60;99.90;;;;;;6202707;23;20377;-79
2021/01/15 06:57:50;;;;;;;24.73;20.90;;;1.50;99.90;;;;;;6201893;23;20409;-79
2021/01/15 07:00:22;;;;;;;21.70;18.70;;;1.50;99.90;;;;;;6165797;23;20415;-79
2021/01/15 07:03:15;;;;;;;26.93;20.57;;;1.50;99.90;;;;;;6165389;23;20427;-79
2021/01/15 07:05:46;;;;;;;27.27;20.80;;;1.50;99.90;;;;;;6116896;23;20451;-79
2021/01/15 07:08:15;;;;;;;23.50;20.90;;;1.50;99.90;;;;;;6169767;23;20431;-79
2021/01/15 07:10:46;;;;;;;21.57;18.90;;;1.50;99.90;;;;;;6206902;23;20400;-79
2021/01/15 07:13:26;;;;;;;20.77;18.57;;;1.50;99.90;;;;;;6170434;23;20741;-79
2021/01/15 07:15:55;;;;;;;24.43;19.63;;;1.50;99.90;;;;;;6207066;23;20380;-79
2021/01/15 07:18:45;;;;;;;22.50;18.40;;;1.50;99.90;;;;;;6171082;23;20470;-79
2021/01/15 07:21:21;;;;;;;25.40;18.67;;;1.50;99.90;;;;;;6171092;23;20444;-79
2021/01/15 07:23:54;;;;;;;21.17;17.57;;;1.50;99.90;;;;;;6208194;23;20739;-79
2021/01/15 07:26:23;;;;;;;21.00;18.63;;;1.50;99.90;;;;;;6173700;23;20464;-79
2021/01/15 07:28:57;;;;;;;21.27;18.27;;;1.50;99.90;;;;;;6205724;23;20783;-79
2021/01/15 07:31:26;;;;;;;21.93;18.23;;;1.50;99.90;;;;;;6168195;23;20427;-79
2021/01/15 07:33:58;;;;;;;22.10;18.80;;;1.50;99.90;;;;;;6168165;23;20418;-79
2021/01/15 07:36:33;;;;;;;20.60;18.17;;;1.50;99.90;;;;;;6205295;23;20392;-79
2021/01/15 07:39:10;;;;;;;19.57;17.47;;;1.50;99.90;;;;;;6205637;23;20407;-79
2021/01/15 07:41:42;;;;;;;18.83;16.40;;;1.50;99.90;;;;;;6169638;23;20804;-79
2021/01/15 07:44:38;;;;;;;20.17;16.23;;;1.50;99.90;;;;;;6207487;23;20380;-79
2021/01/15 07:47:15;;;;;;;19.50;16.63;;;1.50;99.90;;;;;;6206035;23;20384;-79
2021/01/15 07:49:47;;;;;;;21.20;17.20;;;1.50;99.90;;;;;;6169162;23;20458;-79
2021/01/15 07:52:15;;;;;;;20.67;16.10;;;1.50;99.90;;;;;;6206575;23;20384;-79
2021/01/15 07:55:00;;;;;;;19.33;17.40;;;1.50;99.90;;;;;;6169444;23;20419;-79
2021/01/15 07:57:29;;;;;;;18.73;16.07;;;1.50;99.90;;;;;;6171358;23;20419;-79
2021/01/15 07:59:57;;;;;;;19.93;17.50;;;1.50;99.90;;;;;;6207289;23;20442;-79
2021/01/15 08:02:24;;;;;;;20.43;17.77;;;1.50;99.90;;;;;;6171389;23;20442;-79
2021/01/15 08:05:03;;;;;;;20.33;16.63;;;1.50;99.90;;;;;;6207603;23;20423;-79
2021/01/15 08:07:34;;;;;;;20.23;15.73;;;1.50;99.90;;;;;;6208408;23;20391;-79
2021/01/15 08:10:08;;;;;;;18.90;16.40;;;1.50;99.90;;;;;;6172014;23;20785;-79
2021/01/15 08:12:37;;;;;;;19.23;16.70;;;1.50;99.90;;;;;;6208206;23;20411;-79
2021/01/15 08:15:25;;;;;;;21.10;17.00;;;1.50;99.90;;;;;;6171455;23;20474;-79
2021/01/15 08:17:53;;;;;;;20.43;17.33;;;1.50;99.90;;;;;;6171142;23;20404;-79
2021/01/15 08:20:21;;;;;;;21.27;18.20;;;1.50;99.90;;;;;;6208305;23;20879;-79
2021/01/15 08:22:49;;;;;;;20.90;18.70;;;1.50;99.90;;;;;;6171834;23;20443;-79
2021/01/15 08:25:28;;;;;;;20.53;18.30;;;1.50;99.90;;;;;;6170990;23;20439;-79
2021/01/15 08:27:57;;;;;;;18.43;16.27;;;1.50;99.90;;;;;;6209002;23;20380;-79
2021/01/15 08:30:26;;;;;;;20.20;17.20;;;1.50;99.90;;;;;;6171865;23;20918;-79
2021/01/15 08:32:53;;;;;;;19.93;17.37;;;1.50;99.90;;;;;;6208408;23;20388;-79
2021/01/15 08:35:25;;;;;;;20.77;18.03;;;1.50;99.90;;;;;;6172242;23;20416;-79
2021/01/15 08:38:01;;;;;;;20.97;17.10;;;1.50;99.90;;;;;;6172526;23;20416;-79
2021/01/15 08:40:38;;;;;;;19.93;17.07;;;1.50;99.90;;;;;;6172346;23;20787;-79
2021/01/15 08:43:06;;;;;;;20.47;17.87;;;1.50;99.90;;;;;;6171645;23;20498;-79
2021/01/15 08:45:34;;;;;;;19.07;15.90;;;1.50;99.90;;;;;;6171573;23;20415;-79
2021/01/15 08:48:02;;;;;;;19.40;16.83;;;1.50;99.90;;;;;;6171569;23;20414;-79
2021/01/15 08:50:30;;;;;;;18.93;15.87;;;1.50;99.90;;;;;;6174529;23;20427;-79
2021/01/15 08:53:00;;;;;;;19.67;17.53;;;1.50;99.90;;;;;;6176766;23;20439;-79
2021/01/15 08:55:31;;;;;;;19.60;17.23;;;1.50;99.90;;;;;;6175678;23;20740;-79
2021/01/15 08:58:05;;;;;;;21.60;17.53;;;1.50;99.90;;;;;;6213376;23;20432;-79
2021/01/15 09:00:34;;;;;;;21.40;17.67;;;1.50;99.90;;;;;;6212385;23;20409;-79
2021/01/15 09:03:05;;;;;;;20.57;18.20;;;1.50;99.90;;;;;;6213305;23;20431;-79
2021/01/15 09:05:33;;;;;;;23.00;19.53;;;1.50;99.90;;;;;;6173992;23;20906;-79
2021/01/15 09:08:04;;;;;;;20.07;17.10;;;1.50;99.90;;;;;;6207312;23;20420;-79
2021/01/15 09:10:32;;;;;;;19.17;15.70;;;1.50;99.90;;;;;;6169799;23;20405;-79
2021/01/15 09:13:04;;;;;;;19.20;16.50;;;1.50;99.90;;;;;;6170184;23;20416;-79
2021/01/15 09:15:32;;;;;;;18.50;16.20;;;1.50;99.90;;;;;;6171860;23;20404;-79
2021/01/15 09:17:59;;;;;;;18.77;16.77;;;1.50;99.90;;;;;;6170813;23;20439;-79
2021/01/15 09:20:27;;;;;;;16.90;15.10;;;1.40;99.90;;;;;;6170113;23;20408;-79
2021/01/15 09:22:54;;;;;;;18.77;16.40;;;1.40;99.90;;;;;;6169804;23;20748;-79
2021/01/15 09:25:22;;;;;;;19.07;17.07;;;1.40;99.90;;;;;;6207424;23;20396;-79
2021/01/15 09:27:50;;;;;;;16.67;14.30;;;1.40;99.90;;;;;;6207447;23;20400;-79
2021/01/15 09:30:18;;;;;;;19.07;15.30;;;1.40;99.90;;;;;;6206538;23;20450;-79
2021/01/15 09:32:46;;;;;;;17.33;14.13;;;1.30;99.90;;;;;;6171654;23;20419;-79
2021/01/15 09:35:16;;;;;;;14.20;12.73;;;1.30;99.90;;;;;;6207524;23;20403;-79
2021/01/15 09:37:43;;;;;;;18.50;14.03;;;1.30;99.90;;;;;;6170750;23;20418;-79
2021/01/15 09:40:11;;;;;;;16.63;14.23;;;1.30;99.90;;;;;;6171000;23;20436;-79
2021/01/15 09:42:38;;;;;;;14.60;12.40;;;1.20;99.90;;;;;;6207548;23;20435;-79
2021/01/15 09:45:07;;;;;;;16.93;13.77;;;1.20;99.90;;;;;;6207338;23;20882;-79
2021/01/15 09:47:35;;;;;;;15.90;13.70;;;1.20;99.90;;;;;;6207085;23;20731;-79
2021/01/15 09:50:03;;;;;;;16.10;13.50;;;1.20;99.90;;;;;;6206570;23;20419;-79
2021/01/15 09:52:37;;;;;;;15.87;13.10;;;1.20;99.90;;;;;;6207183;23;20444;-79
2021/01/15 09:55:05;;;;;;;14.70;13.07;;;1.10;99.90;;;;;;6169831;23;20408;-79
2021/01/15 09:57:42;;;;;;;16.40;13.10;;;1.20;99.90;;;;;;6170450;23;20420;-79
2021/01/15 10:00:12;;;;;;;15.70;12.77;;;1.10;99.90;;;;;;6170427;23;20442;-79
2021/01/15 10:02:40;;;;;;;17.00;14.33;;;1.20;99.90;;;;;;6170464;23;20741;-79
2021/01/15 10:05:08;;;;;;;14.13;12.47;;;1.10;99.90;;;;;;6170974;23;20420;-79
2021/01/15 10:07:36;;;;;;;15.00;12.20;;;1.10;99.90;;;;;;6170269;23;20820;-79
2021/01/15 10:10:04;;;;;;;14.90;11.93;;;1.10;99.90;;;;;;6170324;23;20495;-79
2021/01/15 10:12:31;;;;;;;15.07;12.30;;;1.10;99.90;;;;;;6207431;23;20406;-79
2021/01/15 10:15:03;;;;;;;16.57;13.83;;;1.20;99.90;;;;;;6170819;23;20409;-79
2021/01/15 10:17:31;;;;;;;18.67;13.77;;;1.10;99.90;;;;;;6170026;23;20411;-79
2021/01/15 10:19:58;;;;;;;17.43;14.20;;;1.10;99.90;;;;;;6207514;23;20411;-79
2021/01/15 10:22:30;;;;;;;14.63;12.70;;;1.10;99.90;;;;;;6170539;23;20435;-79
2021/01/15 10:24:57;;;;;;;14.83;13.00;;;1.10;99.90;;;;;;6171580;23;20412;-79
2021/01/15 10:27:24;;;;;;;15.13;13.60;;;1.10;99.90;;;;;;6170751;23;20424;-79
2021/01/15 10:29:52;;;;;;;15.67;13.40;;;1.10;99.90;;;;;;6171636;23;20425;-79
2021/01/15 10:32:19;;;;;;;17.27;13.37;;;1.10;99.90;;;;;;6171990;23;20400;-79
2021/01/15 10:34:47;;;;;;;14.37;12.87;;;1.20;99.90;;;;;;6210167;23;20407;-79
2021/01/15 10:37:14;;;;;;;14.87;12.80;;;1.10;99.90;;;;;;6170959;23;20416;-79
2021/01/15 10:39:41;;;;;;;14.93;13.20;;;1.10;99.90;;;;;;6170255;23;20463;-79
2021/01/15 10:42:09;;;;;;;13.47;12.07;;;1.10;99.90;;;;;;6205638;23;20482;-80
2021/01/15 10:44:40;;;;;;;14.00;12.03;;;1.10;99.90;;;;;;6169208;23;20407;-80
2021/01/15 10:47:07;;;;;;;14.10;10.90;;;1.10;99.90;;;;;;6169919;23;20423;-80
2021/01/15 10:49:34;;;;;;;15.53;11.60;;;1.10;99.90;;;;;;6170430;23;20454;-79
2021/01/15 10:52:06;;;;;;;11.70;10.27;;;1.20;99.90;;;;;;6170583;23;20921;-79
2021/01/15 10:54:33;;;;;;;12.60;11.27;;;1.10;99.90;;;;;;6170917;23;20864;-79
2021/01/15 10:57:00;;;;;;;11.50;9.50;;;1.10;99.90;;;;;;6170835;23;20412;-79
2021/01/15 10:59:27;;;;;;;11.80;9.43;;;1.10;99.90;;;;;;6206967;23;20415;-79
2021/01/15 11:01:55;;;;;;;13.07;11.37;;;1.10;99.90;;;;;;6170424;23;20438;-79
2021/01/15 11:04:23;;;;;;;12.00;10.70;;;1.00;99.90;;;;;;6171151;23;20414;-79
2021/01/15 11:06:54;;;;;;;13.63;11.20;;;1.10;99.90;;;;;;6170069;23;20503;-79
2021/01/15 11:09:25;;;;;;;12.30;11.07;;;1.10;99.90;;;;;;6207111;23;20412;-79
2021/01/15 11:12:04;;;;;;;11.20;10.00;;;1.10;99.90;;;;;;6207242;23;20388;-79
2021/01/15 11:14:32;;;;;;;11.40;10.07;;;1.10;99.90;;;;;;6170484;23;20400;-79
2021/01/15 11:16:59;;;;;;;11.93;10.20;;;1.10;99.90;;;;;;6206849;23;20926;-79
2021/01/15 11:19:26;;;;;;;13.30;11.00;;;1.10;99.90;;;;;;6169987;23;20436;-79
2021/01/15 11:21:53;;;;;;;10.07;9.07;;;1.20;99.90;;;;;;6206164;23;20486;-79
2021/01/15 11:24:22;;;;;;;10.73;9.20;;;1.20;99.90;;;;;;6170459;23;20756;-79
2021/01/15 11:26:50;;;;;;;11.83;10.20;;;1.20;99.90;;;;;;6171078;23;20415;-79
2021/01/15 11:29:17;;;;;;;9.37;7.73;;;1.20;99.90;;;;;;6210727;23;20472;-79
2021/01/15 11:31:44;;;;;;;9.30;8.30;;;1.20;99.90;;;;;;6209576;23;20411;-79
2021/01/15 11:34:12;;;;;;;9.13;8.17;;;1.20;99.90;;;;;;6173070;23;20415;-79
2021/01/15 11:36:40;;;;;;;11.77;9.27;;;1.20;99.90;;;;;;6172142;23;20454;-79
2021/01/15 11:39:08;;;;;;;10.07;8.90;;;1.20;99.90;;;;;;6171785;23;20764;-79
2021/01/15 11:41:36;;;;;;;9.47;8.53;;;1.20;99.90;;;;;;6208232;23;20392;-79
2021/01/15 11:44:06;;;;;;;8.80;8.00;;;1.20;99.90;;;;;;6170626;23;20410;-79
2021/01/15 11:46:33;;;;;;;8.40;7.13;;;1.20;99.90;;;;;;6171977;23;20418;-79
2021/01/15 11:49:01;;;;;;;8.70;7.10;;;1.20;99.90;;;;;;6171982;23;20433;-79
2021/01/15 11:51:29;;;;;;;10.00;8.37;;;1.30;99.90;;;;;;6207933;23;20407;-79
2021/01/15 11:53:56;;;;;;;7.10;6.40;;;1.30;99.90;;;;;;6172877;23;20407;-79
2021/01/15 11:56:23;;;;;;;6.90;6.20;;;1.30;99.90;;;;;;6172526;23;20490;-79
2021/01/15 11:58:51;;;;;;;6.90;6.20;;;1.30;99.90;;;;;;6207124;23;20419;-79
2021/01/15 12:01:20;;;;;;;7.23;6.60;;;1.30;99.90;;;;;;6208826;23;20431;-79
2021/01/15 12:03:48;;;;;;;6.97;6.37;;;1.30;99.90;;;;;;6170795;23;20499;-79
2021/01/15 12:06:16;;;;;;;9.33;7.67;;;1.30;99.90;;;;;;6206143;23;20389;-78
2021/01/15 12:08:43;;;;;;;7.30;6.67;;;1.30;99.90;;;;;;6207120;23;20910;-80
2021/01/15 12:11:11;;;;;;;8.10;7.03;;;1.30;99.90;;;;;;6170742;23;20418;-79
2021/01/15 12:13:38;;;;;;;7.43;6.73;;;1.30;99.90;;;;;;6206820;23;20739;-79
2021/01/15 12:16:06;;;;;;;9.63;8.00;;;1.40;99.90;;;;;;6169984;23;20408;-79
2021/01/15 12:18:34;;;;;;;7.37;6.57;;;1.40;99.90;;;;;;6206664;23;20419;-79
2021/01/15 12:21:01;;;;;;;8.90;8.00;;;1.40;99.90;;;;;;6168887;23;20416;-79
2021/01/15 12:23:28;;;;;;;7.27;6.57;;;1.50;99.90;;;;;;6207102;23;20438;-79
2021/01/15 12:25:55;;;;;;;7.20;6.50;;;1.50;99.90;;;;;;6169686;23;20412;-79
2021/01/15 12:28:22;;;;;;;6.87;6.20;;;1.50;99.90;;;;;;6205762;23;20506;-79
2021/01/15 12:30:52;;;;;;;9.67;7.90;;;1.50;99.90;;;;;;6206209;23;20408;-79
2021/01/15 12:33:22;;;;;;;7.60;7.00;;;1.50;99.90;;;;;;6170099;23;20439;-79
2021/01/15 12:35:50;;;;;;;7.30;6.57;;;1.50;99.90;;;;;;6170497;23;20436;-79
2021/01/15 12:38:19;;;;;;;6.97;6.37;;;1.50;99.90;;;;;;6206450;23;20415;-79
2021/01/15 12:40:48;;;;;;;6.03;5.50;;;1.50;99.90;;;;;;6170542;23;20422;-79
2021/01/15 12:43:16;;;;;;;6.87;6.20;;;1.50;99.90;;;;;;6170071;23;20824;-79
2021/01/15 12:45:45;;;;;;;6.53;5.93;;;1.50;99.90;;;;;;6207620;23;20403;-79
2021/01/15 12:48:13;;;;;;;5.93;5.43;;;1.50;99.90;;;;;;6170931;23;20532;-79
2021/01/15 12:50:43;;;;;;;6.50;5.93;;;1.50;99.90;;;;;;6172724;23;20413;-79
2021/01/15 12:53:10;;;;;;;6.83;6.23;;;1.60;99.90;;;;;;6208621;23;20385;-79
2021/01/15 12:55:39;;;;;;;6.70;6.10;;;1.60;99.90;;;;;;6171048;23;20487;-79